sensor_id;sensor_type;location;lat;lon;timestamp;pressure;altitude;pressure_sealevel;temperature;humidity
10079;BME280;5078;42.544;22.966;2022-08-16T00:00:31;93533.06;;;18.18;100.00
10079;BME280;5078;42.544;22.966;2022-08-16T00:03:01;93537.75;;;18.46;100.00
10079;BME280;5078;42.544;22.966;2022-08-16T00:05:29;93546.06;;;18.56;100.00
10079;BME280;5078;42.544;22.966;2022-08-16T00:07:56;93539.50;;;18.52;100.00
10079;BME280;5078;42.544;22.966;2022-08-16T00:10:25;93532.38;;;18.34;100.00
10079;BME280;5078;42.544;22.966;2022-08-16T00:12:53;93537.88;;;18.27;100.00
10079;BME280;5078;42.544;22.966;2022-08-16T00:15:23;93538.56;;;18.46;100.00
10079;BME280;5078;42.544;22.966;2022-08-16T00:17:50;93526.78;;;18.36;100.00
10079;BME280;5078;42.544;22.966;2022-08-16T00:20:19;93543.41;;;18.14;100.00
10079;BME280;5078;42.544;22.966;2022-08-16T00:22:48;93552.31;;;18.26;100.00
10079;BME280;5078;42.544;22.966;2022-08-16T00:25:18;93501.19;;;17.98;100.00
10079;BME280;5078;42.544;22.966;2022-08-16T00:27:46;93547.25;;;17.95;100.00
10079;BME280;5078;42.544;22.966;2022-08-16T00:30:14;93544.94;;;18.10;100.00
10079;BME280;5078;42.544;22.966;2022-08-16T00:32:44;93543.53;;;18.07;100.00
10079;BME280;5078;42.544;22.966;2022-08-16T00:35:13;93553.63;;;17.94;100.00
10079;BME280;5078;42.544;22.966;2022-08-16T00:37:43;93548.91;;;18.19;100.00
10079;BME280;5078;42.544;22.966;2022-08-16T00:40:11;93547.75;;;18.27;100.00
10079;BME280;5078;42.544;22.966;2022-08-16T00:42:39;93552.94;;;18.40;100.00
10079;BME280;5078;42.544;22.966;2022-08-16T00:45:14;93559.13;;;18.52;100.00
10079;BME280;5078;42.544;22.966;2022-08-16T00:47:45;93553.44;;;18.07;100.00
10079;BME280;5078;42.544;22.966;2022-08-16T00:50:13;93557.34;;;18.23;100.00
10079;BME280;5078;42.544;22.966;2022-08-16T00:53:01;93562.53;;;18.06;100.00
10079;BME280;5078;42.544;22.966;2022-08-16T00:55:28;93564.84;;;17.91;100.00
10079;BME280;5078;42.544;22.966;2022-08-16T00:57:55;93550.97;;;17.75;100.00
10079;BME280;5078;42.544;22.966;2022-08-16T01:00:24;93560.59;;;17.64;100.00
10079;BME280;5078;42.544;22.966;2022-08-16T01:02:54;93566.34;;;17.68;100.00
10079;BME280;5078;42.544;22.966;2022-08-16T01:05:21;93577.97;;;17.80;100.00
10079;BME280;5078;42.544;22.966;2022-08-16T01:07:50;93564.03;;;18.02;100.00
10079;BME280;5078;42.544;22.966;2022-08-16T01:10:18;93575.34;;;17.74;100.00
10079;BME280;5078;42.544;22.966;2022-08-16T01:12:45;93565.59;;;17.61;100.00
10079;BME280;5078;42.544;22.966;2022-08-16T01:15:12;93573.72;;;17.73;100.00
10079;BME280;5078;42.544;22.966;2022-08-16T01:17:40;93558.28;;;17.86;100.00
10079;BME280;5078;42.544;22.966;2022-08-16T01:20:10;93572.31;;;18.00;100.00
10079;BME280;5078;42.544;22.966;2022-08-16T01:22:45;93573.47;;;17.93;100.00
10079;BME280;5078;42.544;22.966;2022-08-16T01:25:19;93534.50;;;17.72;100.00
10079;BME280;5078;42.544;22.966;2022-08-16T01:27:50;93587.44;;;17.83;100.00
10079;BME280;5078;42.544;22.966;2022-08-16T01:30:21;93581.91;;;18.08;100.00
10079;BME280;5078;42.544;22.966;2022-08-16T01:32:50;93589.88;;;18.26;100.00
10079;BME280;5078;42.544;22.966;2022-08-16T01:35:20;93593.66;;;17.95;100.00
10079;BME280;5078;42.544;22.966;2022-08-16T01:37:50;93599.78;;;18.14;100.00
10079;BME280;5078;42.544;22.966;2022-08-16T01:40:21;93606.78;;;18.15;100.00
10079;BME280;5078;42.544;22.966;2022-08-16T01:42:48;93605.59;;;18.11;100.00
10079;BME280;5078;42.544;22.966;2022-08-16T01:45:17;93593.53;;;18.02;100.00
10079;BME280;5078;42.544;22.966;2022-08-16T01:47:46;93588.84;;;18.27;100.00
10079;BME280;5078;42.544;22.966;2022-08-16T01:50:13;93597.00;;;18.21;100.00
10079;BME280;5078;42.544;22.966;2022-08-16T01:52:59;93585.31;;;18.15;100.00
10079;BME280;5078;42.544;22.966;2022-08-16T01:55:28;93583.72;;;18.26;100.00
10079;BME280;5078;42.544;22.966;2022-08-16T01:57:55;93585.09;;;17.86;100.00
10079;BME280;5078;42.544;22.966;2022-08-16T02:00:23;93586.63;;;17.82;100.00
10079;BME280;5078;42.544;22.966;2022-08-16T02:02:51;93583.75;;;17.96;100.00
10079;BME280;5078;42.544;22.966;2022-08-16T02:05:17;93580.59;;;17.99;100.00
10079;BME280;5078;42.544;22.966;2022-08-16T02:07:44;93577.72;;;17.82;100.00
10079;BME280;5078;42.544;22.966;2022-08-16T02:10:11;93569.25;;;17.97;100.00
10079;BME280;5078;42.544;22.966;2022-08-16T02:12:42;93590.16;;;17.76;100.00
10079;BME280;5078;42.544;22.966;2022-08-16T02:15:11;93571.28;;;17.53;100.00
10079;BME280;5078;42.544;22.966;2022-08-16T02:17:38;93629.13;;;17.23;100.00
10079;BME280;5078;42.544;22.966;2022-08-16T02:20:08;93623.84;;;17.35;100.00
10079;BME280;5078;42.544;22.966;2022-08-16T02:22:35;93640.81;;;17.29;100.00
10079;BME280;5078;42.544;22.966;2022-08-16T02:25:04;93620.94;;;17.37;100.00
10079;BME280;5078;42.544;22.966;2022-08-16T02:27:31;93622.81;;;17.36;100.00
10079;BME280;5078;42.544;22.966;2022-08-16T02:29:59;93609.16;;;17.19;100.00
10079;BME280;5078;42.544;22.966;2022-08-16T02:32:26;93588.34;;;17.21;100.00
10079;BME280;5078;42.544;22.966;2022-08-16T02:34:54;93618.72;;;17.34;100.00
10079;BME280;5078;42.544;22.966;2022-08-16T02:37:21;93609.03;;;17.51;100.00
10079;BME280;5078;42.544;22.966;2022-08-16T02:39:47;93610.59;;;17.59;100.00
10079;BME280;5078;42.544;22.966;2022-08-16T02:42:15;93619.22;;;17.61;100.00
10079;BME280;5078;42.544;22.966;2022-08-16T02:44:43;93622.19;;;17.71;100.00
10079;BME280;5078;42.544;22.966;2022-08-16T02:47:11;93620.41;;;17.65;100.00
10079;BME280;5078;42.544;22.966;2022-08-16T02:49:38;93617.16;;;17.63;100.00
10079;BME280;5078;42.544;22.966;2022-08-16T02:52:05;93609.97;;;17.75;100.00
10079;BME280;5078;42.544;22.966;2022-08-16T02:54:32;93617.13;;;17.81;100.00
10079;BME280;5078;42.544;22.966;2022-08-16T02:56:59;93619.06;;;17.93;100.00
10079;BME280;5078;42.544;22.966;2022-08-16T02:59:26;93605.28;;;17.71;100.00
10079;BME280;5078;42.544;22.966;2022-08-16T03:01:52;93600.06;;;17.76;100.00
10079;BME280;5078;42.544;22.966;2022-08-16T03:04:22;93579.44;;;18.06;100.00
10079;BME280;5078;42.544;22.966;2022-08-16T03:06:49;93612.03;;;18.10;100.00
10079;BME280;5078;42.544;22.966;2022-08-16T03:09:19;93607.06;;;18.25;100.00
10079;BME280;5078;42.544;22.966;2022-08-16T03:11:46;93615.72;;;18.09;100.00
10079;BME280;5078;42.544;22.966;2022-08-16T03:14:13;93565.72;;;17.84;100.00
10079;BME280;5078;42.544;22.966;2022-08-16T03:16:40;93620.69;;;17.94;100.00
10079;BME280;5078;42.544;22.966;2022-08-16T03:19:07;93620.06;;;18.10;100.00
10079;BME280;5078;42.544;22.966;2022-08-16T03:21:36;93619.00;;;18.11;100.00
10079;BME280;5078;42.544;22.966;2022-08-16T03:24:03;93621.97;;;18.21;100.00
10079;BME280;5078;42.544;22.966;2022-08-16T03:26:30;93628.56;;;18.07;100.00
10079;BME280;5078;42.544;22.966;2022-08-16T03:28:57;93587.72;;;17.75;100.00
10079;BME280;5078;42.544;22.966;2022-08-16T03:31:23;93640.28;;;17.94;100.00
10079;BME280;5078;42.544;22.966;2022-08-16T03:33:50;93634.03;;;18.00;100.00
10079;BME280;5078;42.544;22.966;2022-08-16T03:36:17;93640.75;;;18.21;100.00
10079;BME280;5078;42.544;22.966;2022-08-16T03:38:46;93642.41;;;18.22;100.00
10079;BME280;5078;42.544;22.966;2022-08-16T03:41:13;93629.28;;;17.84;100.00
10079;BME280;5078;42.544;22.966;2022-08-16T03:43:40;93626.06;;;17.75;100.00
10079;BME280;5078;42.544;22.966;2022-08-16T03:46:07;93626.88;;;17.94;100.00
10079;BME280;5078;42.544;22.966;2022-08-16T03:48:36;93632.84;;;17.96;100.00
10079;BME280;5078;42.544;22.966;2022-08-16T03:51:05;93636.97;;;17.80;100.00
10079;BME280;5078;42.544;22.966;2022-08-16T03:53:33;93629.81;;;17.93;100.00
10079;BME280;5078;42.544;22.966;2022-08-16T03:56:01;93634.03;;;18.00;100.00
10079;BME280;5078;42.544;22.966;2022-08-16T03:58:28;93630.97;;;17.78;100.00
10079;BME280;5078;42.544;22.966;2022-08-16T04:00:55;93643.25;;;18.04;100.00
10079;BME280;5078;42.544;22.966;2022-08-16T04:03:22;93647.72;;;17.92;100.00
10079;BME280;5078;42.544;22.966;2022-08-16T04:05:49;93660.47;;;17.97;100.00
10079;BME280;5078;42.544;22.966;2022-08-16T04:08:16;93658.25;;;17.94;100.00
10079;BME280;5078;42.544;22.966;2022-08-16T04:10:44;93648.34;;;17.94;100.00
10079;BME280;5078;42.544;22.966;2022-08-16T04:13:12;93646.84;;;17.98;100.00
10079;BME280;5078;42.544;22.966;2022-08-16T04:15:41;93634.16;;;18.05;100.00
10079;BME280;5078;42.544;22.966;2022-08-16T04:18:08;93656.84;;;18.21;100.00
10079;BME280;5078;42.544;22.966;2022-08-16T04:20:35;93657.31;;;18.18;100.00
10079;BME280;5078;42.544;22.966;2022-08-16T04:23:03;93661.06;;;18.29;100.00
10079;BME280;5078;42.544;22.966;2022-08-16T04:25:32;93641.81;;;18.20;100.00
10079;BME280;5078;42.544;22.966;2022-08-16T04:27:59;93641.88;;;17.83;100.00
10079;BME280;5078;42.544;22.966;2022-08-16T04:30:27;93644.63;;;17.95;100.00
10079;BME280;5078;42.544;22.966;2022-08-16T04:32:54;93641.84;;;18.02;100.00
10079;BME280;5078;42.544;22.966;2022-08-16T04:35:22;93622.84;;;18.03;100.00
10079;BME280;5078;42.544;22.966;2022-08-16T04:37:49;93615.72;;;18.09;100.00
10079;BME280;5078;42.544;22.966;2022-08-16T04:40:17;93616.00;;;18.19;100.00
10079;BME280;5078;42.544;22.966;2022-08-16T04:42:44;93608.06;;;18.24;100.00
10079;BME280;5078;42.544;22.966;2022-08-16T04:45:12;93605.84;;;18.63;100.00
10079;BME280;5078;42.544;22.966;2022-08-16T04:47:41;93564.72;;;18.74;100.00
10079;BME280;5078;42.544;22.966;2022-08-16T04:50:09;93623.50;;;19.77;100.00
10079;BME280;5078;42.544;22.966;2022-08-16T04:52:37;93637.34;;;20.55;100.00
10079;BME280;5078;42.544;22.966;2022-08-16T04:55:07;93626.81;;;21.04;100.00
10079;BME280;5078;42.544;22.966;2022-08-16T04:57:35;93612.59;;;21.25;100.00
10079;BME280;5078;42.544;22.966;2022-08-16T05:00:07;93648.44;;;21.60;100.00
10079;BME280;5078;42.544;22.966;2022-08-16T05:02:36;93632.06;;;21.66;100.00
10079;BME280;5078;42.544;22.966;2022-08-16T05:05:07;93595.03;;;21.84;100.00
10079;BME280;5078;42.544;22.966;2022-08-16T05:07:34;93625.66;;;22.16;100.00
10079;BME280;5078;42.544;22.966;2022-08-16T05:10:03;93613.44;;;21.87;99.49
10079;BME280;5078;42.544;22.966;2022-08-16T05:12:30;93639.72;;;21.96;100.00
10079;BME280;5078;42.544;22.966;2022-08-16T05:14:57;93648.34;;;22.37;99.71
10079;BME280;5078;42.544;22.966;2022-08-16T05:17:24;93641.59;;;22.94;94.80
10079;BME280;5078;42.544;22.966;2022-08-16T05:19:51;93641.06;;;23.30;92.67
10079;BME280;5078;42.544;22.966;2022-08-16T05:22:19;93623.75;;;23.73;88.92
10079;BME280;5078;42.544;22.966;2022-08-16T05:24:46;93632.56;;;24.06;83.71
10079;BME280;5078;42.544;22.966;2022-08-16T05:27:13;93621.53;;;23.65;86.11
10079;BME280;5078;42.544;22.966;2022-08-16T05:29:40;93585.53;;;23.64;86.30
10079;BME280;5078;42.544;22.966;2022-08-16T05:32:07;93607.44;;;24.26;84.15
10079;BME280;5078;42.544;22.966;2022-08-16T05:34:34;93604.69;;;24.05;84.16
10079;BME280;5078;42.544;22.966;2022-08-16T05:37:01;93607.38;;;24.05;83.99
10079;BME280;5078;42.544;22.966;2022-08-16T05:39:29;93611.13;;;23.89;84.30
10079;BME280;5078;42.544;22.966;2022-08-16T05:41:56;93604.44;;;23.54;87.77
10079;BME280;5078;42.544;22.966;2022-08-16T05:44:23;93613.41;;;23.17;91.55
10079;BME280;5078;42.544;22.966;2022-08-16T05:46:50;93606.13;;;22.91;93.72
10079;BME280;5078;42.544;22.966;2022-08-16T05:49:17;93599.09;;;22.90;93.49
10079;BME280;5078;42.544;22.966;2022-08-16T05:51:45;93598.28;;;22.89;94.55
10079;BME280;5078;42.544;22.966;2022-08-16T05:54:14;93571.47;;;22.82;95.19
10079;BME280;5078;42.544;22.966;2022-08-16T05:56:43;93610.19;;;23.25;94.03
10079;BME280;5078;42.544;22.966;2022-08-16T05:59:13;93603.81;;;22.99;93.14
10079;BME280;5078;42.544;22.966;2022-08-16T06:01:40;93607.31;;;23.00;94.65
10079;BME280;5078;42.544;22.966;2022-08-16T06:04:09;93603.84;;;22.45;96.34
10079;BME280;5078;42.544;22.966;2022-08-16T06:06:37;93563.56;;;22.44;96.12
10079;BME280;5078;42.544;22.966;2022-08-16T06:09:04;93568.00;;;22.87;94.48
10079;BME280;5078;42.544;22.966;2022-08-16T06:11:30;93597.94;;;23.55;92.16
10079;BME280;5078;42.544;22.966;2022-08-16T06:13:58;93607.53;;;23.31;91.66
10079;BME280;5078;42.544;22.966;2022-08-16T06:16:25;93560.53;;;23.42;92.81
10079;BME280;5078;42.544;22.966;2022-08-16T06:18:52;93568.41;;;24.01;87.69
10079;BME280;5078;42.544;22.966;2022-08-16T06:21:19;93600.69;;;24.39;86.16
10079;BME280;5078;42.544;22.966;2022-08-16T06:23:46;93601.28;;;24.46;86.32
10079;BME280;5078;42.544;22.966;2022-08-16T06:26:13;93595.75;;;24.10;87.89
10079;BME280;5078;42.544;22.966;2022-08-16T06:28:40;93585.88;;;23.78;90.08
10079;BME280;5078;42.544;22.966;2022-08-16T06:31:09;93591.84;;;23.75;89.50
10079;BME280;5078;42.544;22.966;2022-08-16T06:33:37;93564.91;;;23.58;90.04
10079;BME280;5078;42.544;22.966;2022-08-16T06:36:04;93599.66;;;23.72;90.72
10079;BME280;5078;42.544;22.966;2022-08-16T06:38:33;93591.75;;;23.65;90.32
10079;BME280;5078;42.544;22.966;2022-08-16T06:41:02;93591.88;;;23.85;92.82
10079;BME280;5078;42.544;22.966;2022-08-16T06:43:29;93591.47;;;24.19;84.65
10079;BME280;5078;42.544;22.966;2022-08-16T06:45:56;93593.47;;;25.11;83.09
10079;BME280;5078;42.544;22.966;2022-08-16T06:48:24;93580.16;;;25.45;80.40
10079;BME280;5078;42.544;22.966;2022-08-16T06:50:51;93574.06;;;26.44;69.91
10079;BME280;5078;42.544;22.966;2022-08-16T06:53:18;93576.31;;;26.81;65.57
10079;BME280;5078;42.544;22.966;2022-08-16T06:55:45;93561.31;;;27.18;64.80
10079;BME280;5078;42.544;22.966;2022-08-16T06:58:11;93562.63;;;27.26;63.30
10079;BME280;5078;42.544;22.966;2022-08-16T07:00:59;93563.53;;;27.40;61.05
10079;BME280;5078;42.544;22.966;2022-08-16T07:03:27;93557.97;;;27.26;58.52
10079;BME280;5078;42.544;22.966;2022-08-16T07:05:54;93559.13;;;27.15;59.06
10079;BME280;5078;42.544;22.966;2022-08-16T07:08:22;93556.72;;;27.43;58.98
10079;BME280;5078;42.544;22.966;2022-08-16T07:10:49;93523.09;;;27.82;55.05
10079;BME280;5078;42.544;22.966;2022-08-16T07:13:16;93513.78;;;28.26;50.08
10079;BME280;5078;42.544;22.966;2022-08-16T07:15:43;93545.41;;;28.65;50.03
10079;BME280;5078;42.544;22.966;2022-08-16T07:18:10;93544.00;;;28.86;51.08
10079;BME280;5078;42.544;22.966;2022-08-16T07:20:38;93539.56;;;28.90;50.92
10079;BME280;5078;42.544;22.966;2022-08-16T07:23:05;93541.72;;;29.26;48.23
10079;BME280;5078;42.544;22.966;2022-08-16T07:25:34;93515.59;;;29.20;47.87
10079;BME280;5078;42.544;22.966;2022-08-16T07:28:03;93544.22;;;29.83;46.48
10079;BME280;5078;42.544;22.966;2022-08-16T07:30:31;93552.75;;;29.81;46.33
10079;BME280;5078;42.544;22.966;2022-08-16T07:32:58;93544.31;;;29.64;47.65
10079;BME280;5078;42.544;22.966;2022-08-16T07:35:25;93544.41;;;29.73;47.80
10079;BME280;5078;42.544;22.966;2022-08-16T07:37:53;93543.19;;;30.34;45.10
10079;BME280;5078;42.544;22.966;2022-08-16T07:40:20;93545.41;;;30.46;43.08
10079;BME280;5078;42.544;22.966;2022-08-16T07:42:47;93553.03;;;30.07;44.43
10079;BME280;5078;42.544;22.966;2022-08-16T07:45:14;93553.03;;;29.80;46.81
10079;BME280;5078;42.544;22.966;2022-08-16T07:47:42;93550.09;;;30.04;45.25
10079;BME280;5078;42.544;22.966;2022-08-16T07:50:10;93552.22;;;30.07;46.19
10079;BME280;5078;42.544;22.966;2022-08-16T07:52:38;93553.22;;;29.56;45.97
10079;BME280;5078;42.544;22.966;2022-08-16T07:55:08;93556.00;;;29.37;48.13
10079;BME280;5078;42.544;22.966;2022-08-16T07:57:35;93547.88;;;30.06;46.82
10079;BME280;5078;42.544;22.966;2022-08-16T08:00:05;93510.59;;;30.10;46.27
10079;BME280;5078;42.544;22.966;2022-08-16T08:02:32;93508.59;;;30.02;43.71
10079;BME280;5078;42.544;22.966;2022-08-16T08:04:59;93545.25;;;30.28;43.99
10079;BME280;5078;42.544;22.966;2022-08-16T08:07:26;93561.38;;;30.66;43.83
10079;BME280;5078;42.544;22.966;2022-08-16T08:09:53;93569.25;;;31.04;43.76
10079;BME280;5078;42.544;22.966;2022-08-16T08:12:22;93553.91;;;30.58;44.27
10079;BME280;5078;42.544;22.966;2022-08-16T08:14:49;93553.38;;;30.92;44.08
10079;BME280;5078;42.544;22.966;2022-08-16T08:17:36;93553.03;;;30.85;43.78
10079;BME280;5078;42.544;22.966;2022-08-16T08:20:04;93565.22;;;30.65;40.13
10079;BME280;5078;42.544;22.966;2022-08-16T08:22:32;93569.50;;;30.94;41.63
10079;BME280;5078;42.544;22.966;2022-08-16T08:24:59;93573.16;;;31.34;41.28
10079;BME280;5078;42.544;22.966;2022-08-16T08:27:28;93557.19;;;31.50;39.66
10079;BME280;5078;42.544;22.966;2022-08-16T08:29:55;93565.53;;;31.85;40.12
10079;BME280;5078;42.544;22.966;2022-08-16T08:32:22;93569.72;;;32.14;40.70
10079;BME280;5078;42.544;22.966;2022-08-16T08:34:52;93576.56;;;31.63;41.92
10079;BME280;5078;42.544;22.966;2022-08-16T08:37:19;93543.38;;;30.38;41.90
10079;BME280;5078;42.544;22.966;2022-08-16T08:39:47;93547.03;;;30.47;39.97
10079;BME280;5078;42.544;22.966;2022-08-16T08:42:14;93571.63;;;31.42;40.39
10079;BME280;5078;42.544;22.966;2022-08-16T08:44:42;93576.56;;;31.63;40.21
10079;BME280;5078;42.544;22.966;2022-08-16T08:47:08;93572.94;;;31.76;40.38
10079;BME280;5078;42.544;22.966;2022-08-16T08:49:36;93574.13;;;31.92;40.27
10079;BME280;5078;42.544;22.966;2022-08-16T08:52:03;93533.38;;;31.99;40.09
10079;BME280;5078;42.544;22.966;2022-08-16T08:54:31;93566.88;;;32.45;38.62
10079;BME280;5078;42.544;22.966;2022-08-16T08:56:58;93574.81;;;31.67;37.92
10079;BME280;5078;42.544;22.966;2022-08-16T08:59:25;93573.66;;;31.36;39.62
10079;BME280;5078;42.544;22.966;2022-08-16T09:01:53;93569.34;;;31.67;39.15
10079;BME280;5078;42.544;22.966;2022-08-16T09:04:20;93557.31;;;31.45;40.04
10079;BME280;5078;42.544;22.966;2022-08-16T09:06:47;93561.13;;;31.98;39.52
10079;BME280;5078;42.544;22.966;2022-08-16T09:09:14;93572.13;;;32.07;39.71
10079;BME280;5078;42.544;22.966;2022-08-16T09:11:40;93571.22;;;32.29;38.21
10079;BME280;5078;42.544;22.966;2022-08-16T09:14:09;93572.38;;;32.36;38.42
10079;BME280;5078;42.544;22.966;2022-08-16T09:16:35;93570.97;;;32.56;36.77
10079;BME280;5078;42.544;22.966;2022-08-16T09:19:04;93552.41;;;32.62;36.74
10079;BME280;5078;42.544;22.966;2022-08-16T09:21:31;93569.56;;;33.02;37.16
10079;BME280;5078;42.544;22.966;2022-08-16T09:23:58;93567.63;;;32.68;38.55
10079;BME280;5078;42.544;22.966;2022-08-16T09:26:24;93554.66;;;31.94;39.41
10079;BME280;5078;42.544;22.966;2022-08-16T09:28:51;93554.16;;;32.40;38.68
10079;BME280;5078;42.544;22.966;2022-08-16T09:31:18;93561.13;;;32.64;38.36
10079;BME280;5078;42.544;22.966;2022-08-16T09:33:45;93556.34;;;31.50;40.25
10079;BME280;5078;42.544;22.966;2022-08-16T09:36:13;93549.66;;;31.11;40.87
10079;BME280;5078;42.544;22.966;2022-08-16T09:38:40;93550.44;;;31.56;41.14
10079;BME280;5078;42.544;22.966;2022-08-16T09:41:08;93552.59;;;31.68;40.59
10079;BME280;5078;42.544;22.966;2022-08-16T09:43:37;93528.88;;;31.64;40.31
10079;BME280;5078;42.544;22.966;2022-08-16T09:46:06;93551.06;;;32.33;40.02
10079;BME280;5078;42.544;22.966;2022-08-16T09:48:34;93546.03;;;32.18;40.47
10079;BME280;5078;42.544;22.966;2022-08-16T09:51:06;93557.69;;;31.92;40.21
10079;BME280;5078;42.544;22.966;2022-08-16T09:53:36;93498.44;;;31.83;39.11
10079;BME280;5078;42.544;22.966;2022-08-16T09:56:07;93558.13;;;32.17;37.85
10079;BME280;5078;42.544;22.966;2022-08-16T09:58:34;93536.16;;;32.17;36.74
10079;BME280;5078;42.544;22.966;2022-08-16T10:01:01;93556.44;;;32.64;36.62
10079;BME280;5078;42.544;22.966;2022-08-16T10:03:28;93550.19;;;32.90;35.33
10079;BME280;5078;42.544;22.966;2022-08-16T10:05:54;93557.13;;;32.87;35.79
10079;BME280;5078;42.544;22.966;2022-08-16T10:08:21;93544.97;;;32.97;34.65
10079;BME280;5078;42.544;22.966;2022-08-16T10:10:49;93537.69;;;31.92;36.97
10079;BME280;5078;42.544;22.966;2022-08-16T10:13:30;93545.19;;;32.09;37.98
10079;BME280;5078;42.544;22.966;2022-08-16T10:15:59;93548.22;;;31.13;37.89
10079;BME280;5078;42.544;22.966;2022-08-16T10:18:27;93549.09;;;31.00;38.97
10079;BME280;5078;42.544;22.966;2022-08-16T10:20:54;93547.31;;;30.82;39.65
10079;BME280;5078;42.544;22.966;2022-08-16T10:23:23;93468.97;;;30.49;38.69
10079;BME280;5078;42.544;22.966;2022-08-16T10:25:51;93551.03;;;31.00;37.50
10079;BME280;5078;42.544;22.966;2022-08-16T10:28:18;93550.72;;;31.24;37.78
10079;BME280;5078;42.544;22.966;2022-08-16T10:30:45;93544.81;;;31.08;35.11
10079;BME280;5078;42.544;22.966;2022-08-16T10:33:12;93519.06;;;31.40;35.92
10079;BME280;5078;42.544;22.966;2022-08-16T10:35:40;93504.53;;;31.08;37.09
10079;BME280;5078;42.544;22.966;2022-08-16T10:38:08;93548.06;;;31.64;36.05
10079;BME280;5078;42.544;22.966;2022-08-16T10:40:34;93537.50;;;31.88;36.32
10079;BME280;5078;42.544;22.966;2022-08-16T10:43:03;93542.56;;;31.64;36.93
10079;BME280;5078;42.544;22.966;2022-08-16T10:45:30;93510.13;;;31.97;35.50
10079;BME280;5078;42.544;22.966;2022-08-16T10:47:57;93530.38;;;32.18;35.96
10079;BME280;5078;42.544;22.966;2022-08-16T10:50:24;93530.16;;;31.66;35.76
10079;BME280;5078;42.544;22.966;2022-08-16T10:52:52;93541.38;;;31.02;35.55
10079;BME280;5078;42.544;22.966;2022-08-16T10:55:19;93539.75;;;31.01;37.57
10079;BME280;5078;42.544;22.966;2022-08-16T10:57:46;93532.97;;;30.99;34.78
10079;BME280;5078;42.544;22.966;2022-08-16T11:00:17;93535.19;;;31.42;33.71
10079;BME280;5078;42.544;22.966;2022-08-16T11:02:43;93527.06;;;30.83;33.96
10079;BME280;5078;42.544;22.966;2022-08-16T11:05:14;93527.38;;;31.35;34.57
10079;BME280;5078;42.544;22.966;2022-08-16T11:07:44;93540.78;;;31.59;34.61
10079;BME280;5078;42.544;22.966;2022-08-16T11:10:13;93515.81;;;32.00;33.51
10079;BME280;5078;42.544;22.966;2022-08-16T11:12:40;93527.81;;;31.82;32.89
10079;BME280;5078;42.544;22.966;2022-08-16T11:15:09;93518.06;;;31.67;33.80
10079;BME280;5078;42.544;22.966;2022-08-16T11:17:37;93525.28;;;31.94;32.82
10079;BME280;5078;42.544;22.966;2022-08-16T11:20:25;93526.34;;;31.76;33.74
10079;BME280;5078;42.544;22.966;2022-08-16T11:22:53;93518.78;;;31.19;34.59
10079;BME280;5078;42.544;22.966;2022-08-16T11:25:23;93526.06;;;31.24;34.39
10079;BME280;5078;42.544;22.966;2022-08-16T11:27:50;93527.63;;;31.16;33.92
10079;BME280;5078;42.544;22.966;2022-08-16T11:30:17;93513.88;;;30.85;34.91
10079;BME280;5078;42.544;22.966;2022-08-16T11:32:46;93521.97;;;30.53;35.96
10079;BME280;5078;42.544;22.966;2022-08-16T11:35:15;93513.09;;;30.70;35.99
10079;BME280;5078;42.544;22.966;2022-08-16T11:37:45;93508.31;;;30.76;36.16
10079;BME280;5078;42.544;22.966;2022-08-16T11:40:13;93514.63;;;30.99;34.78
10079;BME280;5078;42.544;22.966;2022-08-16T11:42:40;93509.63;;;31.24;34.86
10079;BME280;5078;42.544;22.966;2022-08-16T11:45:08;93488.63;;;31.19;32.80
10079;BME280;5078;42.544;22.966;2022-08-16T11:47:35;93508.53;;;31.65;32.67
10079;BME280;5078;42.544;22.966;2022-08-16T11:50:05;93507.28;;;31.71;32.48
10079;BME280;5078;42.544;22.966;2022-08-16T11:52:33;93483.25;;;30.83;34.16
10079;BME280;5078;42.544;22.966;2022-08-16T11:55:01;93502.72;;;30.45;34.24
10079;BME280;5078;42.544;22.966;2022-08-16T11:57:27;93501.41;;;30.79;33.79
10079;BME280;5078;42.544;22.966;2022-08-16T11:59:54;93505.16;;;31.05;33.30
10079;BME280;5078;42.544;22.966;2022-08-16T12:02:21;93500.91;;;31.22;32.14
10079;BME280;5078;42.544;22.966;2022-08-16T12:04:48;93508.34;;;31.30;33.31
10079;BME280;5078;42.544;22.966;2022-08-16T12:07:16;93494.09;;;31.42;32.74
10079;BME280;5078;42.544;22.966;2022-08-16T12:09:43;93494.03;;;31.64;31.84
10079;BME280;5078;42.544;22.966;2022-08-16T12:12:09;93488.16;;;31.88;29.91
10079;BME280;5078;42.544;22.966;2022-08-16T12:14:36;93482.25;;;32.04;31.08
10079;BME280;5078;42.544;22.966;2022-08-16T12:17:04;93492.59;;;32.24;31.40
10079;BME280;5078;42.544;22.966;2022-08-16T12:19:32;93487.50;;;32.49;31.16
10079;BME280;5078;42.544;22.966;2022-08-16T12:21:59;93494.09;;;32.65;29.43
10079;BME280;5078;42.544;22.966;2022-08-16T12:24:27;93494.28;;;32.51;29.39
10079;BME280;5078;42.544;22.966;2022-08-16T12:26:55;93489.53;;;32.17;29.82
10079;BME280;5078;42.544;22.966;2022-08-16T12:29:22;93484.06;;;32.34;29.24
10079;BME280;5078;42.544;22.966;2022-08-16T12:31:49;93486.00;;;32.42;28.52
10079;BME280;5078;42.544;22.966;2022-08-16T12:34:16;93460.00;;;32.14;28.72
10079;BME280;5078;42.544;22.966;2022-08-16T12:36:43;93483.91;;;32.39;28.53
10079;BME280;5078;42.544;22.966;2022-08-16T12:39:11;93489.28;;;32.53;28.95
10079;BME280;5078;42.544;22.966;2022-08-16T12:41:40;93485.16;;;31.98;27.76
10079;BME280;5078;42.544;22.966;2022-08-16T12:44:10;93483.34;;;31.45;28.56
10079;BME280;5078;42.544;22.966;2022-08-16T12:46:37;93479.84;;;31.31;29.04
10079;BME280;5078;42.544;22.966;2022-08-16T12:49:04;93458.44;;;31.33;28.98
10079;BME280;5078;42.544;22.966;2022-08-16T12:51:32;93461.44;;;31.63;30.74
10079;BME280;5078;42.544;22.966;2022-08-16T12:54:01;93472.72;;;32.01;30.54
10079;BME280;5078;42.544;22.966;2022-08-16T12:56:31;93466.50;;;32.35;28.93
10079;BME280;5078;42.544;22.966;2022-08-16T12:59:02;93461.63;;;32.32;29.91